Crocus, North Dakota
Current Conditions -  °F | °C
As of 12:35 PM on Thursday 30 Oct 2014 (Local Time) from K06D Reporting Station
Broken Clouds Broken Clouds  
Wind Chill: 19°   Ceiling: 2600
Heat Index: 32°   Visibility: 10mi
Dew Point: 18°   Wind: 23mph
Humidity: 55%   Direction: 20°NNE
Pressure: 30.39"   Gusts: 30mph
Location:  48.8584°N, 99.1311°W
Report Text: K06D 301735Z AUTO 02020G26KT 10SM BKN026 00/M08 A3039 RMK AO2
Loading
Personal Weather Stations






























Interactive Weather Map New forecast layout! Learn more

10-Day Weather Forecast

Advertisements
Track Severe Weather on mobile